Time;durP1;ratioP1;P1;durP2;ratioP2;P2;SDS_P1;SDS_P2;PMS_P1;PMS_P2;Temp;Humidity;BMP_temperature;BMP_pressure;BME280_temperature;BME280_humidity;BME280_pressure;Samples;Min_cycle;Max_cycle;Signal;HPM_P1;HPM_P2
2022/12/01 00:01:15;;;;;;;;;;;6.70;89.90;;;;;;5045264;28;19921;-87
2022/12/01 00:03:40;;;;;;;;;;;6.60;90.00;;;;;;5035081;28;19912;-87
2022/12/01 00:06:10;;;;;;;;;;;6.70;89.90;;;;;;5035602;28;19935;-87
2022/12/01 00:08:36;;;;;;;;;;;6.60;90.20;;;;;;5063676;28;19912;-87
2022/12/01 00:11:03;;;;;;;;;;;6.60;90.60;;;;;;5049444;28;20298;-87
2022/12/01 00:13:29;;;;;;;;;;;6.60;90.60;;;;;;5069615;28;19951;-87
2022/12/01 00:15:54;;;;;;;;;;;6.60;90.60;;;;;;5045226;28;19961;-87
2022/12/01 00:18:19;;;;;;;;;;;6.60;90.80;;;;;;5053350;28;19909;-86
2022/12/01 00:20:47;;;;;;;;;;;6.60;90.60;;;;;;5035399;28;19975;-86
2022/12/01 00:23:13;;;;;;;;;;;6.70;90.60;;;;;;5034373;28;19908;-86
2022/12/01 00:25:38;;;;;;;;;;;6.70;90.80;;;;;;5033534;28;19935;-86
2022/12/01 00:28:04;;;;;;;;;;;6.80;90.70;;;;;;5034273;28;19941;-87
2022/12/01 00:30:29;;;;;;;;;;;6.70;90.60;;;;;;5041141;28;19917;-86
2022/12/01 00:32:54;;;;;;;;;;;6.60;90.60;;;;;;5032130;28;20007;-87
2022/12/01 00:35:20;;;;;;;;;;;6.60;90.40;;;;;;5034495;28;19917;-86
2022/12/01 00:37:45;;;;;;;;;;;6.70;90.40;;;;;;5051548;28;19923;-87
2022/12/01 00:40:11;;;;;;;;;;;6.60;90.10;;;;;;5037477;28;19952;-87
2022/12/01 00:42:36;;;;;;;;;;;6.70;90.20;;;;;;5034640;28;19913;-87
2022/12/01 00:45:02;;;;;;;;;;;6.60;89.90;;;;;;5061769;28;19913;-87
2022/12/01 00:47:28;;;;;;;;;;;6.60;90.20;;;;;;5056936;28;20362;-86
2022/12/01 00:49:53;;;;;;;;;;;6.60;90.10;;;;;;5060385;28;19913;-87
2022/12/01 00:52:19;;;;;;;;;;;6.70;89.90;;;;;;5040279;28;19913;-86
2022/12/01 00:54:44;;;;;;;;;;;6.60;89.90;;;;;;5031302;28;19939;-87
2022/12/01 00:57:10;;;;;;;;;;;6.60;90.30;;;;;;5040752;28;19932;-87
2022/12/01 00:59:35;;;;;;;;;;;6.70;90.60;;;;;;5029194;28;19947;-87
2022/12/01 01:02:02;;;;;;;;;;;6.60;90.20;;;;;;5025305;28;19999;-87
2022/12/01 01:04:31;;;;;;;;;;;6.60;90.40;;;;;;5042791;28;19919;-87
2022/12/01 01:06:57;;;;;;;;;;;6.70;90.40;;;;;;5038403;28;19966;-87
2022/12/01 01:09:22;;;;;;;;;;;6.80;90.00;;;;;;5045735;28;19921;-87
2022/12/01 01:11:48;;;;;;;;;;;6.70;90.00;;;;;;5046550;28;20003;-86
2022/12/01 01:14:13;;;;;;;;;;;6.70;89.70;;;;;;5024348;28;19991;-87
2022/12/01 01:16:39;;;;;;;;;;;6.70;89.90;;;;;;5036326;28;19947;-86
2022/12/01 01:19:04;;;;;;;;;;;6.60;89.90;;;;;;5046087;28;20088;-86
2022/12/01 01:21:30;;;;;;;;;;;6.60;90.00;;;;;;5054884;28;19919;-87
2022/12/01 01:23:55;;;;;;;;;;;6.60;90.00;;;;;;5051035;28;19975;-87
2022/12/01 01:26:22;;;;;;;;;;;6.70;89.80;;;;;;5032695;28;20288;-87
2022/12/01 01:28:48;;;;;;;;;;;6.80;89.30;;;;;;5026425;28;20282;-86
2022/12/01 01:31:14;;;;;;;;;;;6.80;89.20;;;;;;5028238;28;19917;-86
2022/12/01 01:33:40;;;;;;;;;;;6.80;89.60;;;;;;5049174;28;20023;-87
2022/12/01 01:36:06;;;;;;;;;;;6.70;89.10;;;;;;5053322;28;19972;-87
2022/12/01 01:38:32;;;;;;;;;;;6.70;89.10;;;;;;5050891;28;19921;-86
2022/12/01 01:40:57;;;;;;;;;;;6.60;89.50;;;;;;5029315;28;20004;-86
2022/12/01 01:43:40;;;;;;;;;;;6.70;89.20;;;;;;5053237;28;19952;-87
2022/12/01 01:46:06;;;;;;;;;;;6.70;89.40;;;;;;5040042;28;19954;-86
2022/12/01 01:48:32;;;;;;;;;;;6.80;89.20;;;;;;5052524;28;19955;-87
2022/12/01 01:50:57;;;;;;;;;;;6.70;89.10;;;;;;5050910;28;20015;-86
2022/12/01 01:53:23;;;;;;;;;;;6.60;89.40;;;;;;5042926;28;19951;-88
2022/12/01 01:55:48;;;;;;;;;;;6.60;89.00;;;;;;5049992;28;19958;-87
2022/12/01 01:58:14;;;;;;;;;;;6.60;89.30;;;;;;5035125;28;19912;-86
2022/12/01 02:00:41;;;;;;;;;;;6.60;89.20;;;;;;5035438;28;20289;-87
2022/12/01 02:03:08;;;;;;;;;;;6.70;89.00;;;;;;5035765;28;19912;-87
2022/12/01 02:05:34;;;;;;;;;;;6.60;88.70;;;;;;5037372;28;19912;-87
2022/12/01 02:08:00;;;;;;;;;;;6.60;89.00;;;;;;5035994;28;20374;-87
2022/12/01 02:10:36;;;;;;;;;;;6.60;89.10;;;;;;5039097;28;19939;-87
2022/12/01 02:13:15;;;;;;;;;;;6.50;89.10;;;;;;5030846;28;19917;-88
2022/12/01 02:15:48;;;;;;;;;;;6.50;89.30;;;;;;5054380;28;19916;-87
2022/12/01 02:18:32;;;;;;;;;;;6.50;89.20;;;;;;5044789;28;19921;-87
2022/12/01 02:21:03;;;;;;;;;;;6.50;88.90;;;;;;5052263;28;20011;-86
2022/12/01 02:23:35;;;;;;;;;;;6.60;88.90;;;;;;5052059;28;19916;-87
2022/12/01 02:26:03;;;;;;;;;;;6.60;88.70;;;;;;5038685;28;19920;-87
2022/12/01 02:28:38;;;;;;;;;;;6.60;88.90;;;;;;5044817;28;20000;-87
2022/12/01 02:31:10;;;;;;;;;;;6.60;88.70;;;;;;5051782;28;20020;-86
2022/12/01 02:33:41;;;;;;;;;;;6.60;88.70;;;;;;5048921;28;19924;-87
2022/12/01 02:36:33;;;;;;;;;;;6.70;88.40;;;;;;5042840;28;19913;-87
2022/12/01 02:39:01;;;;;;;;;;;6.70;88.30;;;;;;5004576;28;20385;-87
2022/12/01 02:41:29;;;;;;;;;;;6.60;88.60;;;;;;5034556;28;19924;-87
2022/12/01 02:44:03;;;;;;;;;;;6.70;88.60;;;;;;5029129;28;19999;-88
2022/12/01 02:46:31;;;;;;;;;;;6.60;88.70;;;;;;5030909;28;20126;-87
2022/12/01 02:48:58;;;;;;;;;;;6.60;88.80;;;;;;5051606;28;20374;-87
2022/12/01 02:51:27;;;;;;;;;;;6.60;88.80;;;;;;5035127;28;19977;-87
2022/12/01 02:53:54;;;;;;;;;;;6.60;88.90;;;;;;5035904;28;20293;-86
2022/12/01 02:56:21;;;;;;;;;;;6.70;88.70;;;;;;5031149;28;19921;-87
2022/12/01 02:58:46;;;;;;;;;;;6.60;89.00;;;;;;5035368;28;19920;-87
2022/12/01 03:01:17;;;;;;;;;;;6.60;88.70;;;;;;5035551;28;19913;-87
2022/12/01 03:03:59;;;;;;;;;;;6.60;89.00;;;;;;5035724;28;21053;-86
2022/12/01 03:06:35;;;;;;;;;;;6.60;89.10;;;;;;5036438;28;19921;-88
2022/12/01 03:09:07;;;;;;;;;;;6.70;89.00;;;;;;5034200;28;19920;-87
2022/12/01 03:11:35;;;;;;;;;;;6.70;88.40;;;;;;5038396;28;19999;-87
2022/12/01 03:14:03;;;;;;;;;;;6.60;88.60;;;;;;5050774;28;20910;-87
2022/12/01 03:16:35;;;;;;;;;;;6.50;88.90;;;;;;5033934;28;19943;-87
2022/12/01 03:19:06;;;;;;;;;;;6.60;89.00;;;;;;5036824;28;20362;-87
2022/12/01 03:21:33;;;;;;;;;;;6.60;89.10;;;;;;5032134;28;19912;-87
2022/12/01 03:24:25;;;;;;;;;;;6.70;89.00;;;;;;5059742;28;19950;-87
2022/12/01 03:26:55;;;;;;;;;;;6.60;88.80;;;;;;5028171;28;19913;-87
2022/12/01 03:29:32;;;;;;;;;;;6.60;88.80;;;;;;5035330;28;19992;-87
2022/12/01 03:31:59;;;;;;;;;;;6.60;89.30;;;;;;5036699;28;19938;-87
2022/12/01 03:34:24;;;;;;;;;;;6.70;88.80;;;;;;5041652;28;19927;-88
2022/12/01 03:37:17;;;;;;;;;;;6.60;88.50;;;;;;5051463;28;20408;-87
2022/12/01 03:39:43;;;;;;;;;;;6.70;88.80;;;;;;5048106;28;19959;-87
2022/12/01 03:42:29;;;;;;;;;;;6.80;88.50;;;;;;5043343;28;20011;-87
2022/12/01 03:44:56;;;;;;;;;;;6.70;88.70;;;;;;5044106;28;20007;-87
2022/12/01 03:47:23;;;;;;;;;;;6.70;88.70;;;;;;5034995;28;19913;-87
2022/12/01 03:49:50;;;;;;;;;;;6.70;88.90;;;;;;5029338;28;19917;-87
2022/12/01 03:52:54;;;;;;;;;;;6.70;88.90;;;;;;5033800;28;19924;-87
2022/12/01 03:55:20;;;;;;;;;;;6.80;88.40;;;;;;4955025;28;19993;-87
2022/12/01 03:57:57;;;;;;;;;;;6.80;88.80;;;;;;4965535;28;20428;-87
2022/12/01 04:00:23;;;;;;;;;;;6.80;88.60;;;;;;5017205;28;19919;-88
2022/12/01 04:02:52;;;;;;;;;;;6.90;88.20;;;;;;5031707;28;19921;-87
2022/12/01 04:05:18;;;;;;;;;;;6.60;88.30;;;;;;5033493;28;20409;-87
2022/12/01 04:07:43;;;;;;;;;;;6.60;88.70;;;;;;5050957;28;19952;-87
2022/12/01 04:10:09;;;;;;;;;;;6.70;88.70;;;;;;5040907;28;19921;-87
2022/12/01 04:12:34;;;;;;;;;;;6.60;88.80;;;;;;5040651;28;19913;-87
2022/12/01 04:15:05;;;;;;;;;;;6.60;88.80;;;;;;5031149;28;20367;-87
2022/12/01 04:17:31;;;;;;;;;;;6.60;88.60;;;;;;5048071;28;19915;-87
2022/12/01 04:19:56;;;;;;;;;;;6.60;88.60;;;;;;5031381;28;19913;-87
2022/12/01 04:22:22;;;;;;;;;;;6.60;88.60;;;;;;5038954;28;19920;-87
2022/12/01 04:24:47;;;;;;;;;;;6.60;88.10;;;;;;5032676;28;19920;-87
2022/12/01 04:27:13;;;;;;;;;;;6.50;88.10;;;;;;5033550;28;19913;-87
2022/12/01 04:29:38;;;;;;;;;;;6.50;88.30;;;;;;5033751;28;20366;-87
2022/12/01 04:32:04;;;;;;;;;;;6.40;88.50;;;;;;5055089;28;19913;-86
2022/12/01 04:34:29;;;;;;;;;;;6.50;88.40;;;;;;5034905;28;19957;-87
2022/12/01 04:36:55;;;;;;;;;;;6.50;88.20;;;;;;5032773;28;19924;-87
2022/12/01 04:39:20;;;;;;;;;;;6.50;88.40;;;;;;5031119;28;19924;-87
2022/12/01 04:41:45;;;;;;;;;;;6.50;88.60;;;;;;5048783;28;19923;-87
2022/12/01 04:44:11;;;;;;;;;;;6.50;88.50;;;;;;5031687;28;19919;-89
2022/12/01 04:46:36;;;;;;;;;;;6.40;88.30;;;;;;5053846;28;19921;-86
2022/12/01 04:49:03;;;;;;;;;;;6.50;88.20;;;;;;5041753;28;20417;-87
2022/12/01 04:51:28;;;;;;;;;;;6.50;88.10;;;;;;5034810;28;19923;-88
2022/12/01 04:53:53;;;;;;;;;;;6.50;88.20;;;;;;5049566;28;20000;-87
2022/12/01 04:56:19;;;;;;;;;;;6.50;88.30;;;;;;5031968;28;19913;-87
2022/12/01 04:58:45;;;;;;;;;;;6.60;88.00;;;;;;5035466;28;19924;-87
2022/12/01 05:01:12;;;;;;;;;;;6.60;88.00;;;;;;5032607;28;19913;-86
2022/12/01 05:03:38;;;;;;;;;;;6.60;88.10;;;;;;5034401;28;19930;-85
2022/12/01 05:06:05;;;;;;;;;;;6.60;88.10;;;;;;5043434;28;20428;-87
2022/12/01 05:08:31;;;;;;;;;;;6.60;88.00;;;;;;5034901;28;20302;-87
2022/12/01 05:10:56;;;;;;;;;;;6.60;88.30;;;;;;5059698;22;19958;-79
2022/12/01 05:13:22;;;;;;;;;;;6.60;88.60;;;;;;5045315;28;19913;-82
2022/12/01 05:15:48;;;;;;;;;;;6.40;88.50;;;;;;5051143;28;20270;-81
2022/12/01 05:18:13;;;;;;;;;;;6.40;89.20;;;;;;5049837;28;19913;-80
2022/12/01 05:20:56;;;;;;;;;;;6.30;89.10;;;;;;5049185;28;19913;-80
2022/12/01 05:23:26;;;;;;;;;;;6.30;88.90;;;;;;5047110;28;19920;-83
2022/12/01 05:25:52;;;;;;;;;;;6.30;89.00;;;;;;5050626;28;19912;-82
2022/12/01 05:28:18;;;;;;;;;;;6.40;89.10;;;;;;5047402;28;19923;-82
2022/12/01 05:30:43;;;;;;;;;;;6.40;88.90;;;;;;5049932;28;20304;-83
2022/12/01 05:33:09;;;;;;;;;;;6.50;89.00;;;;;;5045195;28;19913;-81
2022/12/01 05:35:34;;;;;;;;;;;6.40;88.90;;;;;;5049599;28;19913;-80
2022/12/01 05:38:00;;;;;;;;;;;6.40;88.70;;;;;;5044614;28;20012;-81
2022/12/01 05:40:26;;;;;;;;;;;6.40;89.00;;;;;;5047183;28;19928;-80
2022/12/01 05:42:51;;;;;;;;;;;6.50;88.60;;;;;;5047655;28;20273;-79
2022/12/01 05:45:17;;;;;;;;;;;6.50;88.60;;;;;;5046832;28;19987;-79
2022/12/01 05:47:42;;;;;;;;;;;6.40;88.80;;;;;;5050232;28;19909;-81
2022/12/01 05:50:08;;;;;;;;;;;6.50;88.60;;;;;;5048312;28;19924;-81
2022/12/01 05:52:36;;;;;;;;;;;6.50;88.30;;;;;;5047006;28;19928;-81
2022/12/01 05:55:03;;;;;;;;;;;6.30;88.20;;;;;;5050136;28;19919;-80
2022/12/01 05:57:28;;;;;;;;;;;6.30;89.00;;;;;;5051494;28;19913;-82
2022/12/01 05:59:54;;;;;;;;;;;6.30;89.00;;;;;;5050783;28;19917;-78
2022/12/01 06:02:19;;;;;;;;;;;6.30;89.10;;;;;;5050964;28;19978;-80
2022/12/01 06:04:44;;;;;;;;;;;6.40;88.90;;;;;;5053071;28;19913;-81
2022/12/01 06:07:10;;;;;;;;;;;6.40;89.00;;;;;;5052055;28;19917;-79
2022/12/01 06:09:35;;;;;;;;;;;6.30;88.90;;;;;;5040977;28;19923;-82
2022/12/01 06:12:01;;;;;;;;;;;6.30;88.70;;;;;;5048691;28;19944;-81
2022/12/01 06:14:26;;;;;;;;;;;6.30;88.50;;;;;;5047954;28;19913;-80
2022/12/01 06:16:52;;;;;;;;;;;6.30;88.60;;;;;;5051195;28;19913;-80
2022/12/01 06:19:17;;;;;;;;;;;6.40;88.80;;;;;;5048855;28;20502;-79
2022/12/01 06:21:42;;;;;;;;;;;6.40;88.70;;;;;;5057467;28;20383;-79
2022/12/01 06:24:08;;;;;;;;;;;6.30;88.70;;;;;;5055614;28;19984;-80
2022/12/01 06:26:34;;;;;;;;;;;6.30;88.80;;;;;;5055133;28;19917;-79
2022/12/01 06:28:59;;;;;;;;;;;6.40;89.00;;;;;;5052461;28;20373;-79
2022/12/01 06:31:25;;;;;;;;;;;6.40;88.50;;;;;;5052066;28;19948;-80
2022/12/01 06:33:50;;;;;;;;;;;6.30;88.30;;;;;;5051454;28;19919;-80
2022/12/01 06:36:16;;;;;;;;;;;6.40;88.40;;;;;;5043051;28;20280;-82
2022/12/01 06:38:41;;;;;;;;;;;6.30;88.30;;;;;;5048595;28;19912;-83
2022/12/01 06:41:07;;;;;;;;;;;6.30;88.50;;;;;;5049814;28;20315;-79
2022/12/01 06:43:34;;;;;;;;;;;6.40;88.60;;;;;;5046529;28;19990;-81
2022/12/01 06:46:01;;;;;;;;;;;6.40;88.00;;;;;;5044735;28;19930;-81
2022/12/01 06:48:26;;;;;;;;;;;6.50;88.20;;;;;;5062437;28;19996;-79
2022/12/01 06:50:55;;;;;;;;;;;6.50;87.90;;;;;;5058691;28;19971;-80
2022/12/01 06:53:20;;;;;;;;;;;6.40;87.70;;;;;;5064095;28;20038;-80
2022/12/01 06:55:46;;;;;;;;;;;6.40;88.20;;;;;;5066731;28;19909;-81
2022/12/01 06:58:11;;;;;;;;;;;6.50;88.60;;;;;;5063320;28;19921;-81
2022/12/01 07:00:37;;;;;;;;;;;6.50;87.90;;;;;;5059380;28;19913;-81
2022/12/01 07:03:02;;;;;;;;;;;6.50;87.40;;;;;;5063017;28;19976;-80
2022/12/01 07:05:27;;;;;;;;;;;6.30;87.90;;;;;;5067020;28;19912;-81
2022/12/01 07:07:53;;;;;;;;;;;6.30;88.20;;;;;;5068393;28;19909;-81
2022/12/01 07:10:18;;;;;;;;;;;6.40;88.40;;;;;;5066334;28;19927;-81
2022/12/01 07:12:44;;;;;;;;;;;6.50;88.10;;;;;;5068116;28;19917;-81
2022/12/01 07:15:09;;;;;;;;;;;6.40;88.30;;;;;;5068511;28;19936;-81
2022/12/01 07:17:35;;;;;;;;;;;6.20;88.80;;;;;;5063403;28;19916;-81
2022/12/01 07:20:00;;;;;;;;;;;6.10;89.20;;;;;;5064846;28;19928;-80
2022/12/01 07:22:27;;;;;;;;;;;6.20;89.70;;;;;;5065204;28;19909;-80
2022/12/01 07:24:52;;;;;;;;;;;6.30;89.70;;;;;;5066602;28;19951;-79
2022/12/01 07:27:18;;;;;;;;;;;6.30;89.50;;;;;;5061827;28;19936;-78
2022/12/01 07:29:44;;;;;;;;;;;6.20;89.40;;;;;;5059619;28;19956;-80
2022/12/01 07:32:09;;;;;;;;;;;6.20;89.70;;;;;;5058461;28;19974;-81
2022/12/01 07:34:35;;;;;;;;;;;6.30;89.70;;;;;;5066481;28;19948;-79
2022/12/01 07:37:00;;;;;;;;;;;6.40;89.20;;;;;;5061572;28;20003;-78
2022/12/01 07:39:26;;;;;;;;;;;6.30;88.90;;;;;;5060872;28;19955;-80
2022/12/01 07:41:51;;;;;;;;;;;6.30;89.10;;;;;;5061044;28;19928;-79
2022/12/01 07:44:17;;;;;;;;;;;6.30;88.70;;;;;;5061781;28;19909;-80
2022/12/01 07:46:42;;;;;;;;;;;6.20;88.60;;;;;;5062632;28;19943;-81
2022/12/01 07:49:10;;;;;;;;;;;6.30;89.00;;;;;;5064031;28;20016;-80
2022/12/01 07:51:36;;;;;;;;;;;6.30;88.90;;;;;;5064075;28;19925;-81
2022/12/01 07:54:02;;;;;;;;;;;6.20;88.80;;;;;;5061028;28;19909;-81
2022/12/01 07:56:28;;;;;;;;;;;6.20;89.10;;;;;;5058210;28;19939;-81
2022/12/01 07:58:54;;;;;;;;;;;6.20;88.90;;;;;;5057825;28;19916;-79
2022/12/01 08:01:21;;;;;;;;;;;6.30;88.90;;;;;;5058178;28;20008;-80
2022/12/01 08:03:50;;;;;;;;;;;6.10;88.80;;;;;;5059993;28;19971;-79
2022/12/01 08:06:16;;;;;;;;;;;6.10;88.90;;;;;;5063384;28;19983;-80
2022/12/01 08:08:42;;;;;;;;;;;6.10;88.80;;;;;;5062058;28;20008;-78
2022/12/01 08:11:12;;;;;;;;;;;6.10;89.00;;;;;;5060293;28;19956;-78
2022/12/01 08:13:37;;;;;;;;;;;6.10;88.80;;;;;;5060620;28;20391;-79
2022/12/01 08:16:04;;;;;;;;;;;6.00;88.70;;;;;;5059153;28;19916;-79
2022/12/01 08:18:29;;;;;;;;;;;6.00;89.00;;;;;;5060084;28;19921;-79
2022/12/01 08:20:55;;;;;;;;;;;6.10;88.80;;;;;;5059515;28;19984;-79
2022/12/01 08:23:21;;;;;;;;;;;6.00;88.80;;;;;;5055210;28;19917;-80
2022/12/01 08:25:46;;;;;;;;;;;6.10;88.60;;;;;;5058240;28;20269;-79
2022/12/01 08:28:12;;;;;;;;;;;6.10;88.80;;;;;;5058036;28;19917;-80
2022/12/01 08:30:37;;;;;;;;;;;6.10;89.00;;;;;;5058941;28;19974;-78
2022/12/01 08:33:03;;;;;;;;;;;6.10;88.90;;;;;;5055502;28;19985;-79
2022/12/01 08:35:28;;;;;;;;;;;6.20;88.90;;;;;;5059150;28;19978;-79
2022/12/01 08:37:53;;;;;;;;;;;6.20;88.70;;;;;;5056526;28;19917;-79
2022/12/01 08:40:20;;;;;;;;;;;6.20;88.40;;;;;;5051635;28;20307;-80
2022/12/01 08:42:45;;;;;;;;;;;6.20;88.70;;;;;;5058598;28;20249;-79
2022/12/01 08:45:11;;;;;;;;;;;6.30;88.40;;;;;;5060251;28;19921;-78
2022/12/01 08:47:36;;;;;;;;;;;6.20;88.70;;;;;;5059162;28;19923;-79
2022/12/01 08:50:03;;;;;;;;;;;6.20;88.60;;;;;;5059457;28;20274;-78
2022/12/01 08:52:32;;;;;;;;;;;6.10;88.40;;;;;;5054014;28;19980;-79
2022/12/01 08:54:58;;;;;;;;;;;6.00;89.00;;;;;;5056268;28;19913;-79
2022/12/01 08:57:23;;;;;;;;;;;6.00;89.30;;;;;;5053838;28;19920;-81
2022/12/01 08:59:49;;;;;;;;;;;5.90;89.30;;;;;;5056723;28;19917;-79
2022/12/01 09:02:15;;;;;;;;;;;6.00;89.60;;;;;;5057076;28;19913;-77
2022/12/01 09:04:41;;;;;;;;;;;5.90;89.80;;;;;;5060148;28;19909;-79
2022/12/01 09:07:08;;;;;;;;;;;6.00;90.00;;;;;;5063320;28;19920;-79
2022/12/01 09:09:34;;;;;;;;;;;6.10;89.30;;;;;;5059348;28;19936;-79
2022/12/01 09:11:59;;;;;;;;;;;6.00;89.70;;;;;;5062252;28;20356;-79
2022/12/01 09:14:25;;;;;;;;;;;6.00;90.10;;;;;;5064128;28;19943;-78
2022/12/01 09:16:50;;;;;;;;;;;6.00;89.70;;;;;;5064014;28;19980;-79
2022/12/01 09:19:17;;;;;;;;;;;6.10;89.70;;;;;;5061288;28;20002;-78
2022/12/01 09:21:44;;;;;;;;;;;6.10;89.40;;;;;;5062572;28;19908;-78
2022/12/01 09:24:10;;;;;;;;;;;6.10;89.20;;;;;;5063030;28;20313;-78
2022/12/01 09:26:35;;;;;;;;;;;6.10;88.90;;;;;;5061440;28;20450;-79
2022/12/01 09:29:03;;;;;;;;;;;6.00;89.00;;;;;;5063396;28;19909;-78
2022/12/01 09:31:29;;;;;;;;;;;6.30;88.70;;;;;;5062252;28;19916;-79
2022/12/01 09:33:55;;;;;;;;;;;6.20;88.40;;;;;;5051802;28;19970;-78
2022/12/01 09:36:21;;;;;;;;;;;6.10;88.00;;;;;;5051002;28;19971;-78
2022/12/01 09:38:46;;;;;;;;;;;6.10;87.80;;;;;;5041283;28;19913;-77
2022/12/01 09:41:32;;;;;;;;;;;6.10;88.30;;;;;;5045885;28;20368;-77
2022/12/01 09:44:01;;;;;;;;;;;6.10;87.70;;;;;;5045651;28;19913;-77
2022/12/01 09:46:31;;;;;;;;;;;6.10;88.10;;;;;;5044746;28;19924;-77
2022/12/01 09:48:56;;;;;;;;;;;6.10;88.10;;;;;;5044833;28;19916;-78
2022/12/01 09:51:23;;;;;;;;;;;6.20;87.70;;;;;;5050613;28;19940;-78
2022/12/01 09:53:50;;;;;;;;;;;6.20;88.00;;;;;;5050673;28;20363;-78
2022/12/01 09:56:18;;;;;;;;;;;6.30;88.10;;;;;;5051731;28;20355;-79
2022/12/01 09:58:44;;;;;;;;;;;6.30;87.40;;;;;;5053425;28;19913;-78
2022/12/01 10:01:15;;;;;;;;;;;6.30;87.00;;;;;;5050109;28;19940;-79
2022/12/01 10:03:45;;;;;;;;;;;6.30;86.40;;;;;;5044082;28;19917;-78
2022/12/01 10:06:19;;;;;;;;;;;6.40;86.30;;;;;;5048178;28;19917;-78
2022/12/01 10:09:14;;;;;;;;;;;6.50;85.60;;;;;;5052297;28;19913;-78
2022/12/01 10:11:41;;;;;;;;;;;6.50;85.40;;;;;;5034040;28;19921;-78
2022/12/01 10:14:16;;;;;;;;;;;6.50;85.30;;;;;;5054233;28;19948;-78
2022/12/01 10:16:44;;;;;;;;;;;6.60;85.30;;;;;;5054265;28;19909;-78
2022/12/01 10:19:31;;;;;;;;;;;6.70;83.50;;;;;;5051371;28;19993;-78
2022/12/01 10:22:00;;;;;;;;;;;6.60;83.40;;;;;;5054276;28;20284;-78
2022/12/01 10:24:31;;;;;;;;;;;6.60;83.60;;;;;;5052265;28;20041;-79
2022/12/01 10:27:03;;;;;;;;;;;6.60;83.00;;;;;;5062608;28;19920;-82
2022/12/01 10:29:38;;;;;;;;;;;6.60;83.30;;;;;;5061141;28;19909;-83
2022/12/01 10:32:11;;;;;;;;;;;6.60;82.90;;;;;;5059911;28;20443;-82
2022/12/01 10:34:38;;;;;;;;;;;6.60;83.30;;;;;;5056195;28;19909;-83
2022/12/01 10:37:04;;;;;;;;;;;6.60;83.30;;;;;;5062029;28;20046;-83
2022/12/01 10:39:35;;;;;;;;;;;6.80;82.30;;;;;;5058583;28;19935;-82
2022/12/01 10:42:04;;;;;;;;;;;6.70;82.60;;;;;;5056789;28;20304;-83
2022/12/01 10:44:30;;;;;;;;;;;6.50;82.50;;;;;;5058158;28;19973;-83
2022/12/01 10:46:55;;;;;;;;;;;6.60;82.10;;;;;;5062917;28;20368;-82
2022/12/01 10:49:33;;;;;;;;;;;6.60;82.40;;;;;;5057088;28;19919;-81
2022/12/01 10:51:58;;;;;;;;;;;6.60;82.60;;;;;;5049849;28;19916;-83
2022/12/01 10:54:38;;;;;;;;;;;6.60;82.70;;;;;;5047822;28;20003;-85
2022/12/01 10:57:05;;;;;;;;;;;6.70;82.30;;;;;;5051133;28;19913;-86
2022/12/01 10:59:36;;;;;;;;;;;6.70;81.80;;;;;;5060685;28;19970;-86
2022/12/01 11:02:03;;;;;;;;;;;6.60;82.20;;;;;;5055749;28;19919;-85
2022/12/01 11:04:35;;;;;;;;;;;6.60;82.80;;;;;;5055616;28;19952;-85
2022/12/01 11:07:01;;;;;;;;;;;6.60;82.70;;;;;;5053254;28;19931;-86
2022/12/01 11:09:30;;;;;;;;;;;6.60;82.20;;;;;;5070528;22;20435;-87
2022/12/01 11:12:05;;;;;;;;;;;6.70;81.90;;;;;;5050744;28;19923;-85
2022/12/01 11:14:43;;;;;;;;;;;6.70;82.50;;;;;;5050794;28;19913;-85
2022/12/01 11:17:21;;;;;;;;;;;6.80;82.10;;;;;;5048146;28;20532;-85
2022/12/01 11:19:47;;;;;;;;;;;6.80;81.30;;;;;;5052458;28;20293;-85
2022/12/01 11:22:23;;;;;;;;;;;6.80;81.40;;;;;;5040031;28;19912;-85
2022/12/01 11:24:56;;;;;;;;;;;6.80;81.10;;;;;;5040428;28;19960;-85
2022/12/01 11:27:23;;;;;;;;;;;6.90;81.40;;;;;;5035045;28;20037;-86
2022/12/01 11:29:51;;;;;;;;;;;6.90;81.20;;;;;;5035742;28;19917;-86
2022/12/01 11:32:19;;;;;;;;;;;7.00;80.50;;;;;;5037942;28;20006;-85
2022/12/01 11:34:52;;;;;;;;;;;6.90;80.80;;;;;;5028838;28;19922;-84
2022/12/01 11:37:20;;;;;;;;;;;7.00;80.70;;;;;;5029151;28;20267;-86
2022/12/01 11:39:46;;;;;;;;;;;6.90;80.40;;;;;;5026501;28;19945;-84
2022/12/01 11:42:12;;;;;;;;;;;6.90;80.70;;;;;;5037077;28;20448;-86
2022/12/01 11:44:38;;;;;;;;;;;6.80;81.50;;;;;;5029138;28;19917;-82
2022/12/01 11:47:11;;;;;;;;;;;6.80;81.30;;;;;;5036932;28;19940;-83
2022/12/01 11:49:38;;;;;;;;;;;6.80;81.00;;;;;;5029047;28;19913;-84
2022/12/01 11:52:22;;;;;;;;;;;6.80;81.10;;;;;;5045804;28;19925;-83
2022/12/01 11:54:58;;;;;;;;;;;6.80;80.70;;;;;;5026828;28;19921;-84
2022/12/01 11:57:24;;;;;;;;;;;6.80;80.90;;;;;;5025907;28;20370;-83
2022/12/01 11:59:50;;;;;;;;;;;6.90;81.10;;;;;;5026654;28;19948;-84
2022/12/01 12:02:38;;;;;;;;;;;6.80;81.00;;;;;;5029649;28;19921;-84
2022/12/01 12:05:19;;;;;;;;;;;6.90;81.20;;;;;;5023088;28;19967;-83
2022/12/01 12:08:04;;;;;;;;;;;7.00;80.70;;;;;;5031650;28;19917;-84
2022/12/01 12:10:29;;;;;;;;;;;7.10;79.70;;;;;;5027640;28;19924;-83
2022/12/01 12:12:58;;;;;;;;;;;7.10;79.60;;;;;;5025971;28;20344;-84
2022/12/01 12:15:40;;;;;;;;;;;7.10;79.60;;;;;;5017890;28;20294;-84
2022/12/01 12:18:14;;;;;;;;;;;7.20;78.40;;;;;;5026689;28;20256;-84
2022/12/01 12:20:52;;;;;;;;;;;7.00;79.60;;;;;;5025586;28;20382;-85
2022/12/01 12:23:17;;;;;;;;;;;7.10;79.80;;;;;;5023178;28;19917;-83
2022/12/01 12:25:51;;;;;;;;;;;7.00;79.70;;;;;;5044145;28;20331;-85
2022/12/01 12:28:31;;;;;;;;;;;6.90;79.40;;;;;;5051615;28;19908;-85
2022/12/01 12:30:57;;;;;;;;;;;6.90;79.90;;;;;;5044283;28;19917;-84
2022/12/01 12:33:33;;;;;;;;;;;6.90;80.30;;;;;;5042744;28;19914;-84
2022/12/01 12:36:17;;;;;;;;;;;6.90;79.70;;;;;;5044286;28;20034;-85
2022/12/01 12:38:58;;;;;;;;;;;7.00;79.70;;;;;;5039950;28;19909;-85
2022/12/01 12:41:30;;;;;;;;;;;7.00;79.00;;;;;;5057559;28;19923;-84
2022/12/01 12:43:58;;;;;;;;;;;7.00;79.50;;;;;;5043880;28;19972;-84
2022/12/01 12:46:29;;;;;;;;;;;6.80;80.00;;;;;;5029607;28;19995;-85
2022/12/01 12:49:01;;;;;;;;;;;6.90;80.10;;;;;;5045272;28;19953;-86
2022/12/01 12:51:50;;;;;;;;;;;7.00;80.30;;;;;;5048027;28;20322;-84
2022/12/01 12:54:39;;;;;;;;;;;6.90;79.80;;;;;;5103330;27;19927;-84
2022/12/01 12:57:07;;;;;;;;;;;6.90;80.10;;;;;;5102022;28;19912;-85
2022/12/01 12:59:38;;;;;;;;;;;6.90;80.60;;;;;;5108608;28;20391;-84
2022/12/01 13:02:12;;;;;;;;;;;7.00;79.70;;;;;;5097528;28;20379;-83
2022/12/01 13:04:49;;;;;;;;;;;6.90;79.90;;;;;;5105882;28;20342;-82
2022/12/01 13:07:15;;;;;;;;;;;6.90;79.60;;;;;;5110852;28;20375;-81
2022/12/01 13:09:42;;;;;;;;;;;6.90;79.80;;;;;;5113967;28;19912;-83
2022/12/01 13:12:14;;;;;;;;;;;6.80;79.80;;;;;;5112459;28;19983;-82
2022/12/01 13:14:52;;;;;;;;;;;6.80;80.40;;;;;;5108675;28;19923;-82
2022/12/01 13:17:24;;;;;;;;;;;6.80;79.90;;;;;;5095064;28;19912;-83
2022/12/01 13:19:49;;;;;;;;;;;6.70;80.40;;;;;;5107826;28;19949;-84
2022/12/01 13:22:16;;;;;;;;;;;6.90;79.80;;;;;;5099992;28;19912;-84
2022/12/01 13:24:42;;;;;;;;;;;6.90;78.90;;;;;;5108699;28;20015;-84
2022/12/01 13:27:17;;;;;;;;;;;6.90;78.90;;;;;;5103709;28;20001;-85
2022/12/01 13:29:47;;;;;;;;;;;6.90;78.60;;;;;;5118179;28;19920;-84
2022/12/01 13:32:25;;;;;;;;;;;6.80;78.90;;;;;;5108861;28;19916;-84
2022/12/01 13:34:51;;;;;;;;;;;6.80;79.00;;;;;;5110720;28;20394;-84
2022/12/01 13:37:24;;;;;;;;;;;7.00;78.80;;;;;;5116003;28;19908;-84
2022/12/01 13:39:52;;;;;;;;;;;7.00;77.90;;;;;;5100909;28;19912;-83
2022/12/01 13:42:20;;;;;;;;;;;7.00;78.80;;;;;;5123597;28;19912;-83
2022/12/01 13:44:53;;;;;;;;;;;6.90;78.50;;;;;;5118205;28;20287;-83
2022/12/01 13:47:19;;;;;;;;;;;6.80;78.30;;;;;;5117142;28;19969;-83
2022/12/01 13:49:46;;;;;;;;;;;6.80;78.80;;;;;;5114904;28;19917;-83
2022/12/01 13:52:15;;;;;;;;;;;6.80;79.30;;;;;;5097372;28;19920;-84
2022/12/01 13:54:57;;;;;;;;;;;6.80;79.30;;;;;;5111088;28;19991;-85
2022/12/01 13:57:28;;;;;;;;;;;6.80;78.60;;;;;;5128899;22;19939;-84
2022/12/01 13:59:59;;;;;;;;;;;6.80;78.70;;;;;;5068273;28;19986;-85
2022/12/01 14:02:29;;;;;;;;;;;6.80;78.70;;;;;;5066022;28;20619;-85
2022/12/01 14:05:14;;;;;;;;;;;6.80;79.80;;;;;;5058773;28;19913;-85
2022/12/01 14:07:40;;;;;;;;;;;6.90;79.40;;;;;;5050371;28;19913;-85
2022/12/01 14:10:07;;;;;;;;;;;6.90;79.50;;;;;;5058913;28;19920;-85
2022/12/01 14:12:36;;;;;;;;;;;6.80;80.20;;;;;;5053623;28;20327;-86
2022/12/01 14:15:20;;;;;;;;;;;6.70;80.30;;;;;;5054417;28;19963;-86
2022/12/01 14:17:46;;;;;;;;;;;6.80;80.20;;;;;;5058251;28;19912;-86
2022/12/01 14:20:11;;;;;;;;;;;6.70;79.70;;;;;;5053837;28;19916;-86
2022/12/01 14:22:38;;;;;;;;;;;6.60;80.40;;;;;;5052656;28;19935;-86
2022/12/01 14:25:06;;;;;;;;;;;6.70;80.00;;;;;;5055472;28;19913;-86
2022/12/01 14:27:37;;;;;;;;;;;6.60;80.50;;;;;;5048512;28;19912;-86
2022/12/01 14:30:21;;;;;;;;;;;6.70;80.30;;;;;;5054025;28;19909;-86
2022/12/01 14:32:47;;;;;;;;;;;6.80;80.40;;;;;;5050736;28;19916;-86
2022/12/01 14:35:13;;;;;;;;;;;6.80;80.60;;;;;;5052595;28;19920;-85
2022/12/01 14:37:41;;;;;;;;;;;6.80;80.30;;;;;;5052349;28;19913;-86
2022/12/01 14:40:11;;;;;;;;;;;6.60;80.50;;;;;;5051789;28;19913;-85